ID-0125 weather

CLOSED Owi Airfield
Owi Island, Papua, Indonesia

Public forecast

Using degrees Celsius for public forecast. Weather courtesy of forecast.io.

Closest aviation weather report (METAR) to Owi Airfield

Closest report is Frans Kaisiepo Airport, 6.9 nm (12.8 km) WNW. Retrieved 2020/02/20 16:00 UTC (57 minutes ago):

WABB 201600Z 31003KT 9999 FEW018 SCT100 25/24 Q1010 NOSIG

Closest aviation forecast (TAF) to Owi Airfield

Closest forecast is Frans Kaisiepo Airport, 6.9 nm (12.8 km) WNW. Retrieved 2020/02/20 12:15 UTC (5 hours ago):

TAF WABB 201100Z 2012/2118 35005KT 9999 SCT018 TEMPO 2016/2019 6000 RA BECMG 2020/2022 00000KT